Time;durP1;ratioP1;P1;durP2;ratioP2;P2;SDS_P1;SDS_P2;PMS_P1;PMS_P2;Temp;Humidity;BMP_temperature;BMP_pressure;BME280_temperature;BME280_humidity;BME280_pressure;Samples;Min_cycle;Max_cycle;Signal;HPM_P1;HPM_P2
2022/10/17 00:00:44;;;;;;;1.52;1.42;;;;;;;;;;5094708;28;20433;-87
2022/10/17 00:03:09;;;;;;;0.73;0.73;;;;;;;;;;5094713;28;20031;-86
2022/10/17 00:05:40;;;;;;;0.85;0.70;;;;;;;;;;5094270;28;20111;-87
2022/10/17 00:08:05;;;;;;;1.35;1.25;;;;;;;;;;5094352;28;20468;-87
2022/10/17 00:10:31;;;;;;;1.00;0.60;;;;;;;;;;5112337;28;20053;-86
2022/10/17 00:12:56;;;;;;;0.65;0.65;;;;;;;;;;5109471;28;20035;-87
2022/10/17 00:15:22;;;;;;;2.40;1.17;;;;;;;;;;5112961;28;20027;-87
2022/10/17 00:17:48;;;;;;;3.22;1.15;;;;;;;;;;5094380;28;20031;-86
2022/10/17 00:20:14;;;;;;;0.65;0.65;;;;;;;;;;5094002;28;20020;-86
2022/10/17 00:22:40;;;;;;;0.90;0.90;;;;;;;;;;5111978;28;20361;-86
2022/10/17 00:25:06;;;;;;;1.27;0.95;;;;;;;;;;5112689;28;20035;-86
2022/10/17 00:27:40;;;;;;;0.68;0.52;;;;;;;;;;5112896;28;20016;-87
2022/10/17 00:30:09;;;;;;;0.52;0.52;;;;;;;;;;5109345;28;20093;-87
2022/10/17 00:32:35;;;;;;;1.00;0.75;;;;;;;;;;5094131;28;20035;-88
2022/10/17 00:35:01;;;;;;;0.88;0.60;;;;;;;;;;5094154;28;20031;-88
2022/10/17 00:37:26;;;;;;;1.08;0.60;;;;;;;;;;5112673;28;20066;-86
2022/10/17 00:39:53;;;;;;;1.15;1.05;;;;;;;;;;5111923;28;20626;-87
2022/10/17 00:42:18;;;;;;;1.00;0.82;;;;;;;;;;5093879;28;20073;-86
2022/10/17 00:44:46;;;;;;;1.33;1.05;;;;;;;;;;5111792;28;20028;-86
2022/10/17 00:47:16;;;;;;;0.70;0.70;;;;;;;;;;5110110;28;20535;-86
2022/10/17 00:49:41;;;;;;;0.77;0.55;;;;;;;;;;5093759;28;20027;-87
2022/10/17 00:52:12;;;;;;;2.80;0.98;;;;;;;;;;5093574;28;20034;-86
2022/10/17 00:54:42;;;;;;;0.85;0.63;;;;;;;;;;5112191;28;20023;-86
2022/10/17 00:57:08;;;;;;;0.73;0.63;;;;;;;;;;5093494;28;20039;-86
2022/10/17 00:59:36;;;;;;;0.65;0.65;;;;;;;;;;5091251;28;20133;-86
2022/10/17 01:02:15;;;;;;;0.38;0.38;;;;;;;;;;5093299;28;20032;-86
2022/10/17 01:04:43;;;;;;;0.77;0.70;;;;;;;;;;5112044;28;20098;-86
2022/10/17 01:07:10;;;;;;;0.88;0.80;;;;;;;;;;5093527;28;20027;-86
2022/10/17 01:09:35;;;;;;;0.68;0.50;;;;;;;;;;5093570;28;20134;-86
2022/10/17 01:12:14;;;;;;;1.27;0.85;;;;;;;;;;5093569;28;20107;-86
2022/10/17 01:15:25;;;;;;;0.63;0.63;;;;;;;;;;5091980;28;20039;-86
2022/10/17 01:18:16;;;;;;;0.63;0.63;;;;;;;;;;5086565;28;20035;-85
2022/10/17 01:20:53;;;;;;;0.28;0.28;;;;;;;;;;5089346;28;20035;-86
2022/10/17 01:23:41;;;;;;;0.57;0.57;;;;;;;;;;5095864;28;20055;-86
2022/10/17 01:26:24;;;;;;;0.75;0.75;;;;;;;;;;5096909;28;20031;-85
2022/10/17 01:29:15;;;;;;;1.95;1.25;;;;;;;;;;5097197;28;20177;-86
2022/10/17 01:31:56;;;;;;;1.10;1.00;;;;;;;;;;5096460;28;20027;-85
2022/10/17 01:34:37;;;;;;;0.90;0.63;;;;;;;;;;5094835;28;20068;-86
2022/10/17 01:37:07;;;;;;;0.30;0.30;;;;;;;;;;5112535;28;20031;-86
2022/10/17 01:39:45;;;;;;;0.95;0.65;;;;;;;;;;5114864;28;20433;-86
2022/10/17 01:42:25;;;;;;;0.88;0.60;;;;;;;;;;5096620;28;20036;-86
2022/10/17 01:44:58;;;;;;;;;;;;;;;;;;5115227;28;20467;-86
2022/10/17 01:47:28;;;;;;;0.10;0.10;;;;;;;;;;5114639;28;19998;-86
2022/10/17 01:49:58;;;;;;;0.40;0.40;;;;;;;;;;5096668;28;20558;-86
2022/10/17 01:52:28;;;;;;;0.35;0.35;;;;;;;;;;5096234;28;20057;-86
2022/10/17 01:55:05;;;;;;;1.23;0.38;;;;;;;;;;5112409;28;20038;-85
2022/10/17 01:57:36;;;;;;;0.30;0.30;;;;;;;;;;5095441;28;20031;-85
2022/10/17 02:00:08;;;;;;;0.10;0.10;;;;;;;;;;5115086;28;20054;-85
2022/10/17 02:02:35;;;;;;;0.45;0.30;;;;;;;;;;5113222;28;20059;-85
2022/10/17 02:05:02;;;;;;;0.20;0.20;;;;;;;;;;5096525;28;20383;-85
2022/10/17 02:07:28;;;;;;;0.20;0.20;;;;;;;;;;5114747;27;20026;-86
2022/10/17 02:09:53;;;;;;;0.20;0.13;;;;;;;;;;5096366;28;21073;-86
2022/10/17 02:12:58;;;;;;;0.40;0.38;;;;;;;;;;5107214;28;20028;-86
2022/10/17 02:15:39;;;;;;;0.20;0.20;;;;;;;;;;5088556;28;20026;-86
2022/10/17 02:18:17;;;;;;;0.32;0.32;;;;;;;;;;5088193;28;20035;-86
2022/10/17 02:20:52;;;;;;;1.08;0.73;;;;;;;;;;5097435;28;20391;-85
2022/10/17 02:23:26;;;;;;;0.10;0.10;;;;;;;;;;5109285;28;20065;-85
2022/10/17 02:26:01;;;;;;;0.10;0.10;;;;;;;;;;5095882;28;20063;-86
2022/10/17 02:28:46;;;;;;;0.30;0.30;;;;;;;;;;5090336;28;20039;-85
2022/10/17 02:31:40;;;;;;;0.22;0.22;;;;;;;;;;5091867;28;20082;-87
2022/10/17 02:34:19;;;;;;;0.10;0.10;;;;;;;;;;5106481;28;20126;-87
2022/10/17 02:36:50;;;;;;;0.73;0.73;;;;;;;;;;5111018;28;20032;-86
2022/10/17 02:39:17;;;;;;;0.20;0.20;;;;;;;;;;5092201;28;20042;-85
2022/10/17 02:41:44;;;;;;;0.73;0.45;;;;;;;;;;5113572;28;20041;-85
2022/10/17 02:44:10;;;;;;;0.10;0.10;;;;;;;;;;5112741;28;20515;-86
2022/10/17 02:46:38;;;;;;;0.20;0.20;;;;;;;;;;5094866;28;20157;-86
2022/10/17 02:49:15;;;;;;;0.32;0.32;;;;;;;;;;5095722;28;20031;-85
2022/10/17 02:52:03;;;;;;;0.10;0.10;;;;;;;;;;5111465;28;20374;-87
2022/10/17 02:54:36;;;;;;;0.40;0.40;;;;;;;;;;5080317;28;20039;-87
2022/10/17 02:57:31;;;;;;;0.20;0.20;;;;;;;;;;5095859;28;20528;-87
2022/10/17 03:00:00;;;;;;;0.10;0.10;;;;;;;;;;5094615;28;20042;-86
2022/10/17 03:02:25;;;;;;;0.28;0.25;;;;;;;;;;5092995;28;20068;-86
2022/10/17 03:04:51;;;;;;;0.60;0.55;;;;;;;;;;5113910;28;20095;-85
2022/10/17 03:07:16;;;;;;;0.30;0.30;;;;;;;;;;5095755;28;20597;-87
2022/10/17 03:09:42;;;;;;;0.38;0.20;;;;;;;;;;5113970;28;20019;-86
2022/10/17 03:12:07;;;;;;;0.77;0.77;;;;;;;;;;5094776;28;20027;-88
2022/10/17 03:14:34;;;;;;;0.35;0.35;;;;;;;;;;5095547;28;20016;-88
2022/10/17 03:16:59;;;;;;;0.20;0.20;;;;;;;;;;5090815;28;20518;-87
2022/10/17 03:19:25;;;;;;;0.73;0.50;;;;;;;;;;5096046;28;20028;-87
2022/10/17 03:21:50;;;;;;;0.63;0.57;;;;;;;;;;5095148;28;20037;-87
2022/10/17 03:24:15;;;;;;;0.22;0.20;;;;;;;;;;5110868;28;20099;-87
2022/10/17 03:26:41;;;;;;;0.47;0.47;;;;;;;;;;5095302;28;20041;-88
2022/10/17 03:29:06;;;;;;;0.75;0.75;;;;;;;;;;5112221;28;20052;-87
2022/10/17 03:31:32;;;;;;;1.35;0.45;;;;;;;;;;5092696;28;20031;-87
2022/10/17 03:33:57;;;;;;;2.08;1.10;;;;;;;;;;5113509;28;20031;-88
2022/10/17 03:36:22;;;;;;;0.40;0.40;;;;;;;;;;5108745;28;20463;-87
2022/10/17 03:38:51;;;;;;;0.20;0.20;;;;;;;;;;5092775;28;20059;-87
2022/10/17 03:41:17;;;;;;;1.65;0.50;;;;;;;;;;5093153;28;20490;-88
2022/10/17 03:43:42;;;;;;;0.80;0.45;;;;;;;;;;5094376;28;20020;-87
2022/10/17 03:46:08;;;;;;;0.82;0.73;;;;;;;;;;5112051;28;20034;-85
2022/10/17 03:48:33;;;;;;;0.35;0.30;;;;;;;;;;5093270;28;20028;-85
2022/10/17 03:51:01;;;;;;;0.73;0.73;;;;;;;;;;5112221;28;20482;-86
2022/10/17 03:53:27;;;;;;;0.22;0.22;;;;;;;;;;5094537;28;20027;-85
2022/10/17 03:55:52;;;;;;;0.28;0.20;;;;;;;;;;5106926;28;20532;-86
2022/10/17 03:58:18;;;;;;;0.40;0.40;;;;;;;;;;5093192;28;20028;-86
2022/10/17 04:00:43;;;;;;;0.35;0.32;;;;;;;;;;5094626;28;20028;-87
2022/10/17 04:03:09;;;;;;;0.65;0.57;;;;;;;;;;5111803;28;20468;-87
2022/10/17 04:05:34;;;;;;;0.28;0.28;;;;;;;;;;5112762;28;20023;-87
2022/10/17 04:08:00;;;;;;;2.00;0.77;;;;;;;;;;5112918;28;20019;-88
2022/10/17 04:10:25;;;;;;;1.02;0.93;;;;;;;;;;5094436;28;20054;-86
2022/10/17 04:12:50;;;;;;;0.75;0.68;;;;;;;;;;5109442;28;20114;-87
2022/10/17 04:15:16;;;;;;;0.65;0.65;;;;;;;;;;5110860;28;20051;-88
2022/10/17 04:17:41;;;;;;;0.77;0.70;;;;;;;;;;5092183;28;20024;-87
2022/10/17 04:20:07;;;;;;;1.08;0.75;;;;;;;;;;5093880;28;20069;-83
2022/10/17 04:22:32;;;;;;;0.75;0.75;;;;;;;;;;5108779;28;20016;-85
2022/10/17 04:24:58;;;;;;;0.30;0.30;;;;;;;;;;5111032;28;20034;-85
2022/10/17 04:27:23;;;;;;;0.20;0.20;;;;;;;;;;5092403;28;20065;-82
2022/10/17 04:29:49;;;;;;;1.85;1.38;;;;;;;;;;5108399;28;20048;-85
2022/10/17 04:32:14;;;;;;;0.95;0.50;;;;;;;;;;5110617;28;20024;-85
2022/10/17 04:34:39;;;;;;;1.52;0.70;;;;;;;;;;5109644;28;20027;-85
2022/10/17 04:37:05;;;;;;;0.75;0.75;;;;;;;;;;5110861;28;20023;-85
2022/10/17 04:39:30;;;;;;;0.95;0.90;;;;;;;;;;5093280;28;20046;-84
2022/10/17 04:41:56;;;;;;;0.82;0.75;;;;;;;;;;5111246;28;20031;-85
2022/10/17 04:44:22;;;;;;;2.72;0.55;;;;;;;;;;5091649;28;20024;-84
2022/10/17 04:46:48;;;;;;;0.95;0.90;;;;;;;;;;5111755;28;20028;-84
2022/10/17 04:49:13;;;;;;;0.85;0.80;;;;;;;;;;5111504;28;20027;-84
2022/10/17 04:51:39;;;;;;;0.95;0.65;;;;;;;;;;5093315;28;20391;-85
2022/10/17 04:54:04;;;;;;;1.00;0.73;;;;;;;;;;5089918;28;20039;-84
2022/10/17 04:56:30;;;;;;;1.42;0.60;;;;;;;;;;5094450;28;20020;-85
2022/10/17 04:58:56;;;;;;;0.43;0.43;;;;;;;;;;5114329;28;20433;-85
2022/10/17 05:01:22;;;;;;;0.98;0.57;;;;;;;;;;5115691;28;20045;-84
2022/10/17 05:03:48;;;;;;;0.95;0.75;;;;;;;;;;5116156;28;20076;-83
2022/10/17 05:06:23;;;;;;;1.65;0.93;;;;;;;;;;5097004;28;20037;-85
2022/10/17 05:08:48;;;;;;;0.60;0.45;;;;;;;;;;5114272;28;20058;-84
2022/10/17 05:11:20;;;;;;;8.98;1.30;;;;;;;;;;5095442;28;20051;-85
2022/10/17 05:13:54;;;;;;;2.17;0.85;;;;;;;;;;5096948;28;20387;-86
2022/10/17 05:16:20;;;;;;;1.15;0.73;;;;;;;;;;5110264;28;20058;-83
2022/10/17 05:18:51;;;;;;;1.48;1.23;;;;;;;;;;5096773;28;20031;-84
2022/10/17 05:21:17;;;;;;;1.90;1.73;;;;;;;;;;5096922;28;20486;-84
2022/10/17 05:23:42;;;;;;;1.27;1.15;;;;;;;;;;5096157;28;20106;-84
2022/10/17 05:26:08;;;;;;;0.95;0.90;;;;;;;;;;5095025;28;20391;-84
2022/10/17 05:28:33;;;;;;;1.25;1.15;;;;;;;;;;5095642;28;20090;-83
2022/10/17 05:31:07;;;;;;;2.28;1.13;;;;;;;;;;5113558;28;20027;-85
2022/10/17 05:33:32;;;;;;;2.10;1.10;;;;;;;;;;5095295;28;20036;-83
2022/10/17 05:35:58;;;;;;;0.75;0.68;;;;;;;;;;5117689;27;20133;-84
2022/10/17 05:38:24;;;;;;;1.52;1.42;;;;;;;;;;5093169;28;20027;-87
2022/10/17 05:40:49;;;;;;;1.50;1.40;;;;;;;;;;5114805;28;20035;-85
2022/10/17 05:43:15;;;;;;;2.38;1.65;;;;;;;;;;5094689;28;20391;-87
2022/10/17 05:45:41;;;;;;;1.42;1.33;;;;;;;;;;5096939;28;20471;-87
2022/10/17 05:48:07;;;;;;;1.75;1.40;;;;;;;;;;5095210;28;20019;-86
2022/10/17 05:50:34;;;;;;;1.25;0.93;;;;;;;;;;5115513;28;20030;-86
2022/10/17 05:53:00;;;;;;;4.78;2.70;;;;;;;;;;5114251;28;20031;-86
2022/10/17 05:55:27;;;;;;;1.77;1.67;;;;;;;;;;5098784;28;20115;-86
2022/10/17 05:57:53;;;;;;;5.00;2.70;;;;;;;;;;5113510;28;20166;-84
2022/10/17 06:01:18;;;;;;;;;;;;;;;;;;;;;
2022/10/17 06:04:45;;;;;;;;;;;;;;;;;;;;;
2022/10/17 06:07:35;;;;;;;1.23;1.13;;;;;;;;;;4966018;28;20042;-86
2022/10/17 06:10:17;;;;;;;;;;;;;;;;;;;;;
2022/10/17 06:16:23;;;;;;;;;;;;;;;;;;;;;
2022/10/17 06:19:04;;;;;;;1.73;1.60;;;;;;;;;;5100623;28;20288;-87
2022/10/17 06:21:51;;;;;;;2.92;2.10;;;;;;;;;;5115641;28;20028;-87
2022/10/17 06:27:51;;;;;;;3.45;2.58;;;;;;;;;;5111286;28;20031;-87
2022/10/17 06:30:41;;;;;;;2.85;2.05;;;;;;;;;;5093385;28;20058;-88
2022/10/17 06:33:12;;;;;;;6.18;3.10;;;;;;;;;;5084464;28;20100;-88
2022/10/17 06:35:51;;;;;;;7.65;4.75;;;;;;;;;;5114890;28;20031;-87
2022/10/17 06:38:46;;;;;;;1.93;1.63;;;;;;;;;;5095795;28;20027;-86
2022/10/17 06:41:58;;;;;;;1.83;1.50;;;;;;;;;;5096184;28;20102;-87
2022/10/17 06:47:30;;;;;;;2.05;1.95;;;;;;;;;;5107483;28;20039;-85
2022/10/17 06:50:59;;;;;;;;;;;;;;;;;;;;;
2022/10/17 06:53:44;;;;;;;2.10;1.88;;;;;;;;;;5112289;28;20024;-88
2022/10/17 06:56:19;;;;;;;3.67;3.03;;;;;;;;;;5096681;28;20020;-87
2022/10/17 06:58:53;;;;;;;1.65;1.55;;;;;;;;;;5097718;28;20352;-87
2022/10/17 07:01:19;;;;;;;2.60;1.80;;;;;;;;;;5096642;28;20102;-87
2022/10/17 07:03:47;;;;;;;3.17;2.85;;;;;;;;;;5116287;28;20054;-85
2022/10/17 07:06:14;;;;;;;2.92;2.63;;;;;;;;;;5095881;28;20023;-85
2022/10/17 07:08:44;;;;;;;3.95;2.30;;;;;;;;;;5094876;28;20480;-86
2022/10/17 07:11:14;;;;;;;4.35;2.33;;;;;;;;;;5094589;28;20424;-85
2022/10/17 07:13:40;;;;;;;4.90;3.08;;;;;;;;;;5094244;28;20115;-84
2022/10/17 07:16:07;;;;;;;7.38;2.75;;;;;;;;;;5111181;28;20062;-85
2022/10/17 07:18:32;;;;;;;4.03;2.22;;;;;;;;;;5092578;28;20027;-85
2022/10/17 07:20:58;;;;;;;2.70;2.47;;;;;;;;;;5094382;28;20080;-84
2022/10/17 07:23:24;;;;;;;3.15;2.72;;;;;;;;;;5112498;28;20023;-85
2022/10/17 07:25:49;;;;;;;3.15;2.05;;;;;;;;;;5111516;28;20024;-84
2022/10/17 07:28:15;;;;;;;2.65;2.25;;;;;;;;;;5093974;28;20110;-84
2022/10/17 07:30:41;;;;;;;4.63;2.95;;;;;;;;;;5110696;28;20102;-82
2022/10/17 07:33:06;;;;;;;4.20;2.13;;;;;;;;;;5089093;28;20027;-84
2022/10/17 07:35:32;;;;;;;4.75;3.33;;;;;;;;;;5110265;28;20471;-82
2022/10/17 07:37:57;;;;;;;3.72;2.95;;;;;;;;;;5110801;28;20600;-84
2022/10/17 07:40:23;;;;;;;2.20;1.90;;;;;;;;;;5094231;28;20027;-82
2022/10/17 07:42:48;;;;;;;2.80;2.42;;;;;;;;;;5110929;28;20429;-83
2022/10/17 07:45:16;;;;;;;4.57;2.25;;;;;;;;;;5113029;28;20050;-83
2022/10/17 07:47:41;;;;;;;1.80;1.38;;;;;;;;;;5113844;28;20028;-84
2022/10/17 07:50:07;;;;;;;3.20;1.77;;;;;;;;;;5092588;28;20115;-85
2022/10/17 07:52:54;;;;;;;3.05;2.05;;;;;;;;;;5092002;28;20019;-83
2022/10/17 07:55:19;;;;;;;2.58;1.65;;;;;;;;;;5110250;28;20043;-85
2022/10/17 07:57:47;;;;;;;2.15;1.67;;;;;;;;;;5110837;28;20110;-84
2022/10/17 08:00:13;;;;;;;1.50;1.40;;;;;;;;;;5092625;28;20046;-84
2022/10/17 08:02:38;;;;;;;1.40;0.93;;;;;;;;;;5110098;28;20472;-83
2022/10/17 08:05:04;;;;;;;1.48;1.38;;;;;;;;;;5089396;28;20218;-84
2022/10/17 08:07:30;;;;;;;1.42;1.02;;;;;;;;;;5111238;28;20019;-84
2022/10/17 08:09:56;;;;;;;3.95;1.10;;;;;;;;;;5112246;28;20024;-84
2022/10/17 08:12:21;;;;;;;0.93;0.82;;;;;;;;;;5112637;28;20016;-83
2022/10/17 08:14:47;;;;;;;1.85;1.38;;;;;;;;;;5091604;28;20032;-84
2022/10/17 08:17:12;;;;;;;1.83;1.25;;;;;;;;;;5110960;28;20088;-84
2022/10/17 08:19:39;;;;;;;2.17;1.45;;;;;;;;;;5109323;28;20030;-85
2022/10/17 08:22:05;;;;;;;4.47;2.00;;;;;;;;;;5109049;28;20418;-85
2022/10/17 08:24:30;;;;;;;5.28;1.38;;;;;;;;;;5109548;28;20059;-84
2022/10/17 08:26:57;;;;;;;2.50;1.45;;;;;;;;;;5107146;28;20023;-86
2022/10/17 08:29:23;;;;;;;1.80;1.45;;;;;;;;;;5089907;28;20063;-85
2022/10/17 08:31:48;;;;;;;1.92;1.20;;;;;;;;;;5093091;28;20468;-85
2022/10/17 08:34:14;;;;;;;1.63;1.48;;;;;;;;;;5094279;28;20031;-84
2022/10/17 08:36:40;;;;;;;0.85;0.82;;;;;;;;;;5092928;28;20040;-84
2022/10/17 08:39:05;;;;;;;2.83;1.23;;;;;;;;;;5095644;28;20077;-86
2022/10/17 08:41:36;;;;;;;1.25;1.10;;;;;;;;;;5092090;28;20024;-84
2022/10/17 08:44:07;;;;;;;4.43;1.67;;;;;;;;;;5091733;28;20028;-84
2022/10/17 08:46:39;;;;;;;1.38;1.10;;;;;;;;;;5088590;28;20085;-85
2022/10/17 08:49:11;;;;;;;1.30;1.00;;;;;;;;;;5090480;28;20062;-85
2022/10/17 08:51:46;;;;;;;1.85;1.33;;;;;;;;;;5092414;28;20476;-85
2022/10/17 08:54:33;;;;;;;1.15;1.00;;;;;;;;;;5093007;28;20109;-84
2022/10/17 08:56:58;;;;;;;1.83;1.23;;;;;;;;;;5089496;28;20031;-83
2022/10/17 08:59:29;;;;;;;5.05;2.67;;;;;;;;;;5094972;28;20039;-84
2022/10/17 09:02:21;;;;;;;6.10;1.50;;;;;;;;;;5093811;28;20028;-86
2022/10/17 09:05:04;;;;;;;1.25;1.13;;;;;;;;;;5093045;28;20024;-84
2022/10/17 09:07:33;;;;;;;4.63;1.33;;;;;;;;;;5090947;28;20032;-81
2022/10/17 09:10:23;;;;;;;1.17;0.80;;;;;;;;;;5094972;28;20107;-84
2022/10/17 09:13:05;;;;;;;1.50;0.85;;;;;;;;;;5092504;28;20529;-83
2022/10/17 09:15:50;;;;;;;1.42;0.73;;;;;;;;;;5091437;28;20051;-84
2022/10/17 09:18:21;;;;;;;1.27;0.88;;;;;;;;;;5094140;28;20027;-85
2022/10/17 09:21:15;;;;;;;0.82;0.55;;;;;;;;;;5093646;28;20036;-83
2022/10/17 09:23:47;;;;;;;2.60;1.48;;;;;;;;;;5085012;28;20040;-84
2022/10/17 09:26:14;;;;;;;1.17;0.80;;;;;;;;;;5089931;28;20024;-84
2022/10/17 09:28:40;;;;;;;3.42;1.77;;;;;;;;;;5094835;28;20039;-83
2022/10/17 09:31:33;;;;;;;4.00;1.48;;;;;;;;;;5091876;28;20019;-82
2022/10/17 09:34:01;;;;;;;2.22;1.25;;;;;;;;;;5050760;28;20081;-85
2022/10/17 09:36:29;;;;;;;1.48;0.80;;;;;;;;;;5095790;28;20425;-84
2022/10/17 09:39:12;;;;;;;1.60;1.40;;;;;;;;;;5094848;28;20024;-83
2022/10/17 09:41:50;;;;;;;4.30;1.05;;;;;;;;;;5112661;28;20028;-83
2022/10/17 09:44:21;;;;;;;1.65;1.13;;;;;;;;;;5095806;28;20028;-84
2022/10/17 09:47:25;;;;;;;1.05;0.95;;;;;;;;;;5095863;28;20532;-84
2022/10/17 09:49:51;;;;;;;2.60;1.27;;;;;;;;;;5112016;28;20458;-85
2022/10/17 09:52:34;;;;;;;0.60;0.60;;;;;;;;;;5095581;28;20047;-84
2022/10/17 09:55:14;;;;;;;0.75;0.73;;;;;;;;;;5113808;28;20083;-86
2022/10/17 09:57:57;;;;;;;1.60;0.82;;;;;;;;;;5110395;28;20037;-85
2022/10/17 10:00:28;;;;;;;0.95;0.73;;;;;;;;;;5111889;28;20024;-82
2022/10/17 10:03:15;;;;;;;2.22;1.05;;;;;;;;;;5106395;28;20023;-84
2022/10/17 10:05:41;;;;;;;2.22;0.93;;;;;;;;;;5093141;28;20019;-84
2022/10/17 10:08:16;;;;;;;2.90;0.80;;;;;;;;;;5112293;28;20472;-83
2022/10/17 10:10:43;;;;;;;0.73;0.73;;;;;;;;;;5113076;28;20032;-83
2022/10/17 10:13:12;;;;;;;1.02;0.50;;;;;;;;;;5110932;28;20089;-84
2022/10/17 10:15:49;;;;;;;1.60;1.00;;;;;;;;;;5095194;28;20073;-84
2022/10/17 10:18:30;;;;;;;1.75;1.10;;;;;;;;;;5112490;28;20031;-84
2022/10/17 10:21:14;;;;;;;0.55;0.50;;;;;;;;;;5115270;28;20023;-84
2022/10/17 10:23:44;;;;;;;1.50;0.93;;;;;;;;;;5092902;28;20030;-85
2022/10/17 10:26:16;;;;;;;2.28;0.63;;;;;;;;;;5094791;28;20034;-83
2022/10/17 10:28:51;;;;;;;1.10;0.60;;;;;;;;;;5092148;28;20126;-84
2022/10/17 10:31:50;;;;;;;1.67;0.80;;;;;;;;;;5096675;28;20475;-86
2022/10/17 10:34:18;;;;;;;0.65;0.65;;;;;;;;;;5091175;28;20031;-85
2022/10/17 10:36:49;;;;;;;0.77;0.60;;;;;;;;;;5113765;28;20037;-84
2022/10/17 10:39:32;;;;;;;1.58;1.08;;;;;;;;;;5095378;28;20444;-84
2022/10/17 10:42:00;;;;;;;1.27;0.77;;;;;;;;;;5113668;28;20028;-83
2022/10/17 10:44:29;;;;;;;0.88;0.47;;;;;;;;;;5112708;28;20038;-83
2022/10/17 10:47:16;;;;;;;1.92;1.30;;;;;;;;;;5095069;28;20673;-83
2022/10/17 10:49:42;;;;;;;1.73;1.17;;;;;;;;;;5099127;28;20110;-83
2022/10/17 10:52:18;;;;;;;0.70;0.70;;;;;;;;;;5094862;28;20069;-83
2022/10/17 10:54:53;;;;;;;1.55;1.00;;;;;;;;;;5092655;28;20038;-83
2022/10/17 10:57:22;;;;;;;3.92;0.90;;;;;;;;;;5111064;28;20034;-85
2022/10/17 11:00:05;;;;;;;1.65;1.00;;;;;;;;;;5091333;28;20495;-84
2022/10/17 11:02:48;;;;;;;0.80;0.80;;;;;;;;;;5089246;28;20022;-84
2022/10/17 11:05:34;;;;;;;1.15;0.98;;;;;;;;;;5093694;28;20475;-84
2022/10/17 11:08:36;;;;;;;0.82;0.70;;;;;;;;;;5101863;27;20066;-84
2022/10/17 11:11:16;;;;;;;1.65;1.00;;;;;;;;;;5073540;28;20088;-83
2022/10/17 11:14:09;;;;;;;0.85;0.70;;;;;;;;;;5092230;28;20058;-85
2022/10/17 11:16:55;;;;;;;0.80;0.77;;;;;;;;;;5110418;28;20035;-82
2022/10/17 11:19:24;;;;;;;2.85;0.88;;;;;;;;;;5112446;28;20475;-82
2022/10/17 11:21:57;;;;;;;1.02;0.60;;;;;;;;;;5092651;28;20084;-82
2022/10/17 11:25:02;;;;;;;0.93;0.73;;;;;;;;;;5110484;28;20443;-85
2022/10/17 11:27:29;;;;;;;1.48;0.82;;;;;;;;;;5104370;28;20377;-82
2022/10/17 11:29:55;;;;;;;10.65;1.23;;;;;;;;;;5109691;28;20521;-82
2022/10/17 11:32:36;;;;;;;1.65;1.30;;;;;;;;;;5109639;28;20024;-83
2022/10/17 11:35:19;;;;;;;3.53;1.00;;;;;;;;;;5107515;28;20020;-81
2022/10/17 11:37:52;;;;;;;1.10;0.90;;;;;;;;;;5106699;28;20407;-82
2022/10/17 11:40:20;;;;;;;0.75;0.47;;;;;;;;;;5092200;28;20031;-82
2022/10/17 11:42:59;;;;;;;2.97;1.17;;;;;;;;;;5109162;28;20024;-80
2022/10/17 11:45:29;;;;;;;1.77;1.30;;;;;;;;;;5108617;28;20046;-82
2022/10/17 11:48:01;;;;;;;;;;;;;;;;;;5112329;28;20479;-82
2022/10/17 11:50:33;;;;;;;1.70;0.95;;;;;;;;;;5109945;28;20417;-83
2022/10/17 11:53:20;;;;;;;0.90;0.68;;;;;;;;;;5089161;28;20027;-82
2022/10/17 11:55:47;;;;;;;2.03;1.00;;;;;;;;;;5088064;28;20023;-81
2022/10/17 11:58:31;;;;;;;1.25;0.95;;;;;;;;;;5087762;28;20033;-82
2022/10/17 12:01:14;;;;;;;0.63;0.60;;;;;;;;;;5106217;28;20034;-81
2022/10/17 12:03:52;;;;;;;0.40;0.40;;;;;;;;;;5108953;28;20028;-81
2022/10/17 12:06:41;;;;;;;1.05;0.85;;;;;;;;;;5088283;28;20400;-83
2022/10/17 12:09:39;;;;;;;0.52;0.52;;;;;;;;;;5087574;28;20490;-82
2022/10/17 12:12:05;;;;;;;0.60;0.57;;;;;;;;;;5089461;28;20092;-82
2022/10/17 12:14:45;;;;;;;0.68;0.60;;;;;;;;;;5106942;28;20095;-83
2022/10/17 12:17:39;;;;;;;0.85;0.70;;;;;;;;;;5109662;28;20030;-83
2022/10/17 12:20:20;;;;;;;0.90;0.80;;;;;;;;;;5086223;28;20106;-82
2022/10/17 12:22:47;;;;;;;0.70;0.57;;;;;;;;;;5095535;28;20381;-82
2022/10/17 12:25:19;;;;;;;1.15;0.98;;;;;;;;;;5110094;28;20035;-81
2022/10/17 12:27:46;;;;;;;1.00;0.75;;;;;;;;;;5112702;28;20028;-80
2022/10/17 12:30:12;;;;;;;0.88;0.88;;;;;;;;;;5112732;28;20040;-83
2022/10/17 12:32:52;;;;;;;3.08;1.05;;;;;;;;;;5113531;28;20023;-83
2022/10/17 12:35:22;;;;;;;1.58;0.98;;;;;;;;;;5091669;28;20057;-85
2022/10/17 12:37:48;;;;;;;1.48;0.95;;;;;;;;;;5093552;28;20024;-82
2022/10/17 12:40:35;;;;;;;1.80;1.10;;;;;;;;;;5110421;28;20069;-82
2022/10/17 12:43:13;;;;;;;1.08;0.70;;;;;;;;;;5108426;28;20034;-84
2022/10/17 12:45:57;;;;;;;4.78;1.38;;;;;;;;;;5109720;28;20038;-84
2022/10/17 12:48:35;;;;;;;1.23;0.82;;;;;;;;;;5111619;28;20105;-88
2022/10/17 12:51:14;;;;;;;1.90;1.27;;;;;;;;;;5111025;28;20059;-83
2022/10/17 12:53:45;;;;;;;2.03;1.35;;;;;;;;;;5110835;28;20019;-86
2022/10/17 12:56:31;;;;;;;2.35;1.08;;;;;;;;;;5109750;28;20031;-83
2022/10/17 12:59:04;;;;;;;1.98;1.13;;;;;;;;;;5111782;28;20054;-82
2022/10/17 13:01:32;;;;;;;0.77;0.68;;;;;;;;;;5096232;28;20043;-82
2022/10/17 13:04:04;;;;;;;1.33;1.23;;;;;;;;;;5096362;28;20019;-87
2022/10/17 13:06:36;;;;;;;2.17;0.90;;;;;;;;;;5109213;28;20016;-83
2022/10/17 13:09:21;;;;;;;2.13;0.85;;;;;;;;;;5089868;28;20031;-83
2022/10/17 13:11:48;;;;;;;1.48;1.15;;;;;;;;;;5109043;28;20106;-86
2022/10/17 13:14:15;;;;;;;1.13;0.80;;;;;;;;;;5092000;28;20045;-84
2022/10/17 13:16:59;;;;;;;2.20;1.17;;;;;;;;;;5089204;28;20031;-85
2022/10/17 13:19:44;;;;;;;1.55;0.95;;;;;;;;;;5112460;28;20075;-82
2022/10/17 13:22:25;;;;;;;1.83;1.00;;;;;;;;;;5094801;28;20084;-85
2022/10/17 13:25:03;;;;;;;1.75;1.27;;;;;;;;;;5110718;28;20051;-84
2022/10/17 13:27:31;;;;;;;1.98;1.25;;;;;;;;;;5113825;28;20521;-84
2022/10/17 13:30:00;;;;;;;1.00;0.80;;;;;;;;;;5091212;28;20047;-84
2022/10/17 13:32:35;;;;;;;1.42;1.05;;;;;;;;;;5112940;28;20035;-83
2022/10/17 13:35:09;;;;;;;1.42;0.88;;;;;;;;;;5112120;28;20034;-83
2022/10/17 13:37:35;;;;;;;1.70;0.98;;;;;;;;;;5112811;28;20048;-84
2022/10/17 13:40:01;;;;;;;1.77;1.33;;;;;;;;;;5112546;28;20016;-84
2022/10/17 13:42:37;;;;;;;1.35;1.02;;;;;;;;;;5096338;28;20028;-83
2022/10/17 13:45:11;;;;;;;2.05;0.90;;;;;;;;;;5096360;28;20031;-84
2022/10/17 13:47:38;;;;;;;1.45;1.05;;;;;;;;;;5096115;28;20563;-86
2022/10/17 13:50:04;;;;;;;1.52;0.98;;;;;;;;;;5115040;28;20520;-84
2022/10/17 13:52:30;;;;;;;1.60;1.05;;;;;;;;;;5112612;28;20068;-84
2022/10/17 13:55:13;;;;;;;1.27;0.98;;;;;;;;;;5110754;28;20028;-82
2022/10/17 13:57:38;;;;;;;1.52;1.23;;;;;;;;;;5114458;28;20023;-83
2022/10/17 14:00:14;;;;;;;0.93;0.85;;;;;;;;;;5094523;28;20483;-86
2022/10/17 14:02:40;;;;;;;1.27;0.88;;;;;;;;;;5093663;28;20024;-87
2022/10/17 14:05:17;;;;;;;1.52;0.90;;;;;;;;;;5114987;28;20024;-85
2022/10/17 14:07:48;;;;;;;1.40;0.95;;;;;;;;;;5111739;28;20102;-86
2022/10/17 14:10:35;;;;;;;1.17;0.77;;;;;;;;;;5113357;28;20075;-88
2022/10/17 14:13:05;;;;;;;1.75;1.00;;;;;;;;;;5092587;28;20494;-84
2022/10/17 14:15:33;;;;;;;1.13;0.95;;;;;;;;;;5116218;28;20103;-86
2022/10/17 14:18:02;;;;;;;1.27;0.80;;;;;;;;;;5110410;28;20091;-86
2022/10/17 14:20:28;;;;;;;1.13;0.60;;;;;;;;;;5091952;28;20024;-84
2022/10/17 14:22:55;;;;;;;1.40;0.90;;;;;;;;;;5094931;28;20042;-85
2022/10/17 14:25:34;;;;;;;0.80;0.80;;;;;;;;;;5115141;28;20594;-85
2022/10/17 14:28:14;;;;;;;1.10;0.68;;;;;;;;;;5111789;28;20038;-86
2022/10/17 14:30:53;;;;;;;1.42;0.88;;;;;;;;;;5094145;28;20169;-86
2022/10/17 14:33:30;;;;;;;0.97;0.87;;;;;;;;;;5112751;28;20020;-85
2022/10/17 14:35:57;;;;;;;0.65;0.55;;;;;;;;;;5114388;28;20068;-83
2022/10/17 14:38:23;;;;;;;1.45;0.70;;;;;;;;;;5113263;28;20027;-87
2022/10/17 14:41:25;;;;;;;0.57;0.50;;;;;;;;;;5111286;28;20027;-85
2022/10/17 14:43:54;;;;;;;1.88;1.10;;;;;;;;;;5087512;28;20491;-86
2022/10/17 14:46:20;;;;;;;1.23;0.88;;;;;;;;;;5095667;28;20024;-85
2022/10/17 14:48:52;;;;;;;0.80;0.65;;;;;;;;;;5113360;28;20031;-85
2022/10/17 14:51:17;;;;;;;1.25;0.80;;;;;;;;;;5094721;28;20028;-83
2022/10/17 14:54:03;;;;;;;1.52;0.90;;;;;;;;;;5113377;28;20073;-85
2022/10/17 14:56:42;;;;;;;1.42;0.95;;;;;;;;;;5110909;28;20019;-83
2022/10/17 14:59:09;;;;;;;0.60;0.60;;;;;;;;;;5108692;28;20506;-84
2022/10/17 15:01:35;;;;;;;1.38;0.77;;;;;;;;;;5110209;28;20103;-85
2022/10/17 15:04:01;;;;;;;2.30;1.50;;;;;;;;;;5093624;28;20068;-82
2022/10/17 15:06:31;;;;;;;0.40;0.40;;;;;;;;;;5110631;28;20023;-81
2022/10/17 15:08:57;;;;;;;1.05;0.60;;;;;;;;;;5112599;28;20032;-84
2022/10/17 15:11:23;;;;;;;0.57;0.57;;;;;;;;;;5108842;27;20042;-83
2022/10/17 15:13:51;;;;;;;3.75;0.88;;;;;;;;;;5112331;28;20102;-83
2022/10/17 15:16:22;;;;;;;1.10;0.57;;;;;;;;;;5092856;28;20361;-83
2022/10/17 15:18:48;;;;;;;0.60;0.57;;;;;;;;;;5093429;28;20081;-82
2022/10/17 15:21:15;;;;;;;0.80;0.70;;;;;;;;;;5092790;28;20036;-85
2022/10/17 15:23:41;;;;;;;1.88;1.15;;;;;;;;;;5093814;28;20054;-82
2022/10/17 15:26:24;;;;;;;1.20;0.60;;;;;;;;;;5112371;28;20479;-83
2022/10/17 15:28:53;;;;;;;1.88;0.80;;;;;;;;;;5112916;28;20039;-85
2022/10/17 15:31:21;;;;;;;0.73;0.47;;;;;;;;;;5092984;28;20027;-84